Time,TemperatureF,DewpointF,PressureIn,WindDirection,WindDirectionDegrees,WindSpeedMPH,WindSpeedGustMPH,Humidity,HourlyPrecipIn,Conditions,Clouds,dailyrainin,SolarRadiationWatts/m^2,SoftwareType,DateUTC
2013-09-29 06:51:00,52.0,3.0,-100.00,ESE,106,7.0,13.0,13,0.00,,,0.00,0.000000,,2013-09-29 13:51:00,
2013-09-29 07:21:00,52.0,3.0,-100.00,ESE,106,7.0,13.0,13,0.00,,,0.00,0.000000,,2013-09-29 14:21:00,
2013-09-29 07:32:00,52.0,3.0,-100.00,ESE,106,7.0,13.0,13,0.00,,,0.00,0.000000,,2013-09-29 14:32:00,
2013-09-29 07:42:00,52.0,3.0,-100.00,ESE,106,7.0,13.0,13,0.00,,,0.00,0.000000,,2013-09-29 14:42:00,
2013-09-29 07:51:00,53.0,5.0,-100.00,South,180,7.0,14.0,14,0.00,,,0.00,34.000000,,2013-09-29 14:51:00,
2013-09-29 08:22:00,53.0,5.0,-100.00,South,180,7.0,14.0,14,0.00,,,0.00,34.000000,,2013-09-29 15:22:00,
2013-09-29 08:35:00,53.0,5.0,-100.00,South,180,7.0,14.0,14,0.00,,,0.00,34.000000,,2013-09-29 15:35:00,
2013-09-29 08:45:00,53.0,5.0,-100.00,South,180,7.0,14.0,14,0.00,,,0.00,34.000000,,2013-09-29 15:45:00,
2013-09-29 09:51:00,58.0,4.0,-100.00,NNW,333,6.0,14.0,11,0.00,,,0.00,652.000000,,2013-09-29 16:51:00,
2013-09-29 10:24:00,58.0,4.0,-100.00,NNW,333,6.0,14.0,11,0.00,,,0.00,652.000000,,2013-09-29 17:24:00,
2013-09-29 10:34:00,58.0,4.0,-100.00,NNW,333,6.0,14.0,11,0.00,,,0.00,652.000000,,2013-09-29 17:34:00,
2013-09-29 10:43:00,58.0,4.0,-100.00,NNW,333,6.0,14.0,11,0.00,,,0.00,652.000000,,2013-09-29 17:43:00,
2013-09-29 10:51:00,63.0,15.0,-100.00,North,2,3.0,14.0,15,0.00,,,0.00,940.000000,,2013-09-29 17:51:00,
2013-09-29 11:22:00,63.0,15.0,-100.00,North,2,3.0,14.0,15,0.00,,,0.00,940.000000,,2013-09-29 18:22:00,
2013-09-29 11:32:00,63.0,15.0,-100.00,North,2,3.0,14.0,15,0.00,,,0.00,940.000000,,2013-09-29 18:32:00,
2013-09-29 11:42:00,63.0,15.0,-100.00,North,2,3.0,14.0,15,0.00,,,0.00,940.000000,,2013-09-29 18:42:00,
2013-09-29 11:51:00,65.0,18.0,-100.00,NNW,338,4.0,11.0,16,0.00,,,0.00,1115.000000,,2013-09-29 18:51:00,
2013-09-29 12:21:00,65.0,18.0,-100.00,NNW,338,4.0,11.0,16,0.00,,,0.00,1115.000000,,2013-09-29 19:21:00,
2013-09-29 12:32:00,65.0,18.0,-100.00,NNW,338,4.0,11.0,16,0.00,,,0.00,1115.000000,,2013-09-29 19:32:00,
2013-09-29 12:42:00,65.0,18.0,-100.00,NNW,338,4.0,11.0,16,0.00,,,0.00,1115.000000,,2013-09-29 19:42:00,
2013-09-29 12:51:00,65.0,18.0,-100.00,North,350,3.0,12.0,16,0.00,,,0.00,1211.000000,,2013-09-29 19:51:00,
2013-09-29 13:22:00,65.0,18.0,-100.00,North,350,3.0,12.0,16,0.00,,,0.00,1211.000000,,2013-09-29 20:22:00,
2013-09-29 13:32:00,65.0,18.0,-100.00,North,350,3.0,12.0,16,0.00,,,0.00,1211.000000,,2013-09-29 20:32:00,
2013-09-29 13:42:00,65.0,18.0,-100.00,North,350,3.0,12.0,16,0.00,,,0.00,1211.000000,,2013-09-29 20:42:00,
2013-09-29 13:51:00,65.0,20.0,-100.00,NW,312,4.0,11.0,18,0.00,,,0.00,1213.000000,,2013-09-29 20:51:00,
2013-09-29 14:21:00,65.0,20.0,-100.00,NW,312,4.0,11.0,18,0.00,,,0.00,1213.000000,,2013-09-29 21:21:00,
2013-09-29 14:34:00,65.0,20.0,-100.00,NW,312,4.0,11.0,18,0.00,,,0.00,1213.000000,,2013-09-29 21:34:00,
2013-09-29 14:43:00,65.0,20.0,-100.00,NW,312,4.0,11.0,18,0.00,,,0.00,1213.000000,,2013-09-29 21:43:00,
2013-09-29 14:51:00,62.0,20.0,-100.00,NNW,344,5.0,13.0,20,0.00,,,0.00,1119.000000,,2013-09-29 21:51:00,
2013-09-29 15:24:00,62.0,20.0,-100.00,NNW,344,5.0,13.0,20,0.00,,,0.00,1119.000000,,2013-09-29 22:24:00,
2013-09-29 15:33:00,62.0,20.0,-100.00,NNW,344,5.0,13.0,20,0.00,,,0.00,1119.000000,,2013-09-29 22:33:00,
2013-09-29 15:43:00,62.0,20.0,-100.00,NNW,344,5.0,13.0,20,0.00,,,0.00,1119.000000,,2013-09-29 22:43:00,
2013-09-29 15:51:00,58.0,20.0,-100.00,NW,320,4.0,14.0,23,0.00,,,0.00,833.000000,,2013-09-29 22:51:00,
2013-09-29 16:23:00,58.0,20.0,-100.00,NW,320,4.0,14.0,23,0.00,,,0.00,833.000000,,2013-09-29 23:23:00,
2013-09-29 16:34:00,58.0,20.0,-100.00,NW,320,4.0,14.0,23,0.00,,,0.00,833.000000,,2013-09-29 23:34:00,
2013-09-29 16:43:00,58.0,20.0,-100.00,NW,320,4.0,14.0,23,0.00,,,0.00,833.000000,,2013-09-29 23:43:00,
2013-09-29 16:51:00,56.0,23.0,-100.00,North,351,7.0,16.0,27,0.00,,,0.00,47.000000,,2013-09-29 23:51:00,
2013-09-29 17:22:00,56.0,23.0,-100.00,North,351,7.0,16.0,27,0.00,,,0.00,47.000000,,2013-09-30 00:22:00,
2013-09-29 17:32:00,56.0,23.0,-100.00,North,351,7.0,16.0,27,0.00,,,0.00,47.000000,,2013-09-30 00:32:00,
2013-09-29 17:42:00,56.0,23.0,-100.00,North,351,7.0,16.0,27,0.00,,,0.00,47.000000,,2013-09-30 00:42:00,
2013-09-29 17:51:00,53.0,24.0,-100.00,SSE,159,9.0,17.0,32,0.00,,,0.00,133.000000,,2013-09-30 00:51:00,
2013-09-29 18:22:00,53.0,24.0,-100.00,SSE,159,9.0,17.0,32,0.00,,,0.00,133.000000,,2013-09-30 01:22:00,
2013-09-29 18:32:00,53.0,24.0,-100.00,SSE,159,9.0,17.0,32,0.00,,,0.00,133.000000,,2013-09-30 01:32:00,
2013-09-29 18:42:00,53.0,24.0,-100.00,SSE,159,9.0,17.0,32,0.00,,,0.00,133.000000,,2013-09-30 01:42:00,
2013-09-29 18:51:00,51.0,24.0,-100.00,SW,233,12.0,21.0,35,0.00,,,0.00,35.000000,,2013-09-30 01:51:00,
2013-09-29 19:22:00,51.0,24.0,-100.00,SW,233,12.0,21.0,35,0.00,,,0.00,35.000000,,2013-09-30 02:22:00,
2013-09-29 19:32:00,51.0,24.0,-100.00,SW,233,12.0,21.0,35,0.00,,,0.00,35.000000,,2013-09-30 02:32:00,
2013-09-29 19:42:00,51.0,24.0,-100.00,SW,233,12.0,21.0,35,0.00,,,0.00,35.000000,,2013-09-30 02:42:00,
2013-09-29 19:51:00,49.0,25.0,-100.00,NNE,23,13.0,27.0,38,0.00,,,0.00,0.000000,,2013-09-30 02:51:00,
2013-09-29 20:22:00,49.0,25.0,-100.00,NNE,23,13.0,27.0,38,0.00,,,0.00,0.000000,,2013-09-30 03:22:00,
2013-09-29 20:34:00,49.0,25.0,-100.00,NNE,23,13.0,27.0,38,0.00,,,0.00,0.000000,,2013-09-30 03:34:00,
2013-09-29 20:44:00,49.0,25.0,-100.00,NNE,23,13.0,27.0,38,0.00,,,0.00,0.000000,,2013-09-30 03:44:00,
2013-09-29 20:51:00,49.0,26.0,-100.00,WNW,292,14.0,26.0,41,0.00,,,0.00,0.000000,,2013-09-30 03:51:00,
2013-09-29 21:24:00,49.0,26.0,-100.00,WNW,292,14.0,26.0,41,0.00,,,0.00,0.000000,,2013-09-30 04:24:00,
2013-09-29 21:33:00,49.0,26.0,-100.00,WNW,292,14.0,26.0,41,0.00,,,0.00,0.000000,,2013-09-30 04:33:00,
2013-09-29 21:44:00,49.0,26.0,-100.00,WNW,292,14.0,26.0,41,0.00,,,0.00,0.000000,,2013-09-30 04:44:00,
2013-09-29 21:51:00,50.0,27.0,-100.00,SE,128,14.0,25.0,40,0.00,,,0.00,0.000000,,2013-09-30 04:51:00,
2013-09-29 22:23:00,50.0,27.0,-100.00,SE,128,14.0,25.0,40,0.00,,,0.00,0.000000,,2013-09-30 05:23:00,
2013-09-29 22:33:00,50.0,27.0,-100.00,SE,128,14.0,25.0,40,0.00,,,0.00,0.000000,,2013-09-30 05:33:00,
2013-09-29 22:43:00,50.0,27.0,-100.00,SE,128,14.0,25.0,40,0.00,,,0.00,0.000000,,2013-09-30 05:43:00,
2013-09-29 22:51:00,48.0,26.0,-100.00,SW,222,14.0,26.0,42,0.00,,,0.00,0.000000,,2013-09-30 05:51:00,
2013-09-29 23:21:00,48.0,26.0,-100.00,SW,222,14.0,26.0,42,0.00,,,0.00,0.000000,,2013-09-30 06:21:00,
2013-09-29 23:32:00,48.0,26.0,-100.00,SW,222,14.0,26.0,42,0.00,,,0.00,0.000000,,2013-09-30 06:32:00,
2013-09-29 23:42:00,48.0,26.0,-100.00,SW,222,14.0,26.0,42,0.00,,,0.00,0.000000,,2013-09-30 06:42:00,
2013-09-29 23:51:00,49.0,27.0,-100.00,NE,36,16.0,27.0,43,0.00,,,0.00,0.000000,,2013-09-30 06:51:00,